sensor_id;sensor_type;location;lat;lon;timestamp;temperature;humidity
73780;SHT30;62093;37.614;15.072;2023-05-10T00:01:52;17.92;65.56
73780;SHT30;62093;37.614;15.072;2023-05-10T00:04:17;17.95;65.63
73780;SHT30;62093;37.614;15.072;2023-05-10T00:06:43;17.92;65.61
73780;SHT30;62093;37.614;15.072;2023-05-10T00:09:09;17.89;65.62
73780;SHT30;62093;37.614;15.072;2023-05-10T00:11:35;17.93;65.72
73780;SHT30;62093;37.614;15.072;2023-05-10T00:14:01;17.92;65.51
73780;SHT30;62093;37.614;15.072;2023-05-10T00:16:27;17.90;65.54
73780;SHT30;62093;37.614;15.072;2023-05-10T00:18:52;17.89;65.58
73780;SHT30;62093;37.614;15.072;2023-05-10T00:21:18;17.90;65.49
73780;SHT30;62093;37.614;15.072;2023-05-10T00:23:44;17.89;65.65
73780;SHT30;62093;37.614;15.072;2023-05-10T00:26:11;17.89;65.73
73780;SHT30;62093;37.614;15.072;2023-05-10T00:28:38;17.87;65.62
73780;SHT30;62093;37.614;15.072;2023-05-10T00:31:04;17.86;65.79
73780;SHT30;62093;37.614;15.072;2023-05-10T00:33:30;17.87;65.70
73780;SHT30;62093;37.614;15.072;2023-05-10T00:35:56;17.87;65.72
73780;SHT30;62093;37.614;15.072;2023-05-10T00:38:22;17.86;65.74
73780;SHT30;62093;37.614;15.072;2023-05-10T00:40:47;17.87;65.68
73780;SHT30;62093;37.614;15.072;2023-05-10T00:43:22;17.85;65.75
73780;SHT30;62093;37.614;15.072;2023-05-10T00:45:48;17.85;65.78
73780;SHT30;62093;37.614;15.072;2023-05-10T00:48:14;17.82;65.83
73780;SHT30;62093;37.614;15.072;2023-05-10T00:50:41;17.83;65.62
73780;SHT30;62093;37.614;15.072;2023-05-10T00:53:08;17.83;65.73
73780;SHT30;62093;37.614;15.072;2023-05-10T00:55:34;17.82;65.74
73780;SHT30;62093;37.614;15.072;2023-05-10T00:58:00;17.81;65.84
73780;SHT30;62093;37.614;15.072;2023-05-10T01:00:27;17.79;65.76
73780;SHT30;62093;37.614;15.072;2023-05-10T01:02:53;17.79;65.83
73780;SHT30;62093;37.614;15.072;2023-05-10T01:05:20;17.78;65.69
73780;SHT30;62093;37.614;15.072;2023-05-10T01:07:46;17.76;65.83
73780;SHT30;62093;37.614;15.072;2023-05-10T01:10:13;17.78;65.80
73780;SHT30;62093;37.614;15.072;2023-05-10T01:12:41;17.78;65.81
73780;SHT30;62093;37.614;15.072;2023-05-10T01:15:09;17.76;65.83
73780;SHT30;62093;37.614;15.072;2023-05-10T01:17:38;17.79;65.92
73780;SHT30;62093;37.614;15.072;2023-05-10T01:20:07;17.75;65.99
73780;SHT30;62093;37.614;15.072;2023-05-10T01:23:12;17.76;66.02
73780;SHT30;62093;37.614;15.072;2023-05-10T01:26:16;17.73;65.95
73780;SHT30;62093;37.614;15.072;2023-05-10T01:29:10;17.73;65.98
73780;SHT30;62093;37.614;15.072;2023-05-10T01:43:36;17.72;66.08
73780;SHT30;62093;37.614;15.072;2023-05-10T01:46:07;17.72;66.03
73780;SHT30;62093;37.614;15.072;2023-05-10T01:48:47;17.71;66.09
73780;SHT30;62093;37.614;15.072;2023-05-10T01:51:16;17.71;66.01
73780;SHT30;62093;37.614;15.072;2023-05-10T01:53:46;17.71;66.02
73780;SHT30;62093;37.614;15.072;2023-05-10T01:56:16;17.71;65.98
73780;SHT30;62093;37.614;15.072;2023-05-10T01:58:47;17.68;66.03
73780;SHT30;62093;37.614;15.072;2023-05-10T02:01:14;17.69;65.96
73780;SHT30;62093;37.614;15.072;2023-05-10T02:03:42;17.66;66.02
73780;SHT30;62093;37.614;15.072;2023-05-10T02:06:10;17.66;66.08
73780;SHT30;62093;37.614;15.072;2023-05-10T02:08:39;17.66;66.02
73780;SHT30;62093;37.614;15.072;2023-05-10T02:11:06;17.65;66.03
73780;SHT30;62093;37.614;15.072;2023-05-10T02:13:35;17.63;66.02
73780;SHT30;62093;37.614;15.072;2023-05-10T02:16:03;17.65;66.07
73780;SHT30;62093;37.614;15.072;2023-05-10T02:18:31;17.65;66.07
73780;SHT30;62093;37.614;15.072;2023-05-10T02:20:58;17.65;66.06
73780;SHT30;62093;37.614;15.072;2023-05-10T02:23:25;17.66;66.03
73780;SHT30;62093;37.614;15.072;2023-05-10T02:25:53;17.65;66.08
73780;SHT30;62093;37.614;15.072;2023-05-10T02:28:21;17.63;65.99
73780;SHT30;62093;37.614;15.072;2023-05-10T02:30:48;17.63;66.03
73780;SHT30;62093;37.614;15.072;2023-05-10T02:33:14;17.63;66.08
73780;SHT30;62093;37.614;15.072;2023-05-10T02:35:40;17.66;66.07
73780;SHT30;62093;37.614;15.072;2023-05-10T02:38:08;17.65;66.00
73780;SHT30;62093;37.614;15.072;2023-05-10T02:40:36;17.63;66.01
73780;SHT30;62093;37.614;15.072;2023-05-10T02:43:04;17.63;66.10
73780;SHT30;62093;37.614;15.072;2023-05-10T02:45:32;17.65;65.89
73780;SHT30;62093;37.614;15.072;2023-05-10T02:47:59;17.65;65.83
73780;SHT30;62093;37.614;15.072;2023-05-10T02:50:30;17.66;65.88
73780;SHT30;62093;37.614;15.072;2023-05-10T02:53:09;17.66;65.88
73780;SHT30;62093;37.614;15.072;2023-05-10T02:55:40;17.66;65.95
73780;SHT30;62093;37.614;15.072;2023-05-10T02:58:07;17.66;65.92
73780;SHT30;62093;37.614;15.072;2023-05-10T03:00:33;17.68;65.94
73780;SHT30;62093;37.614;15.072;2023-05-10T03:02:59;17.66;65.98
73780;SHT30;62093;37.614;15.072;2023-05-10T03:05:27;17.66;65.93
73780;SHT30;62093;37.614;15.072;2023-05-10T03:07:53;17.65;65.91
73780;SHT30;62093;37.614;15.072;2023-05-10T03:10:23;17.65;65.91
73780;SHT30;62093;37.614;15.072;2023-05-10T03:18:12;17.63;65.93
73780;SHT30;62093;37.614;15.072;2023-05-10T03:20:48;17.66;65.96
73780;SHT30;62093;37.614;15.072;2023-05-10T03:25:44;17.63;65.92
73780;SHT30;62093;37.614;15.072;2023-05-10T03:28:12;17.65;65.95
73780;SHT30;62093;37.614;15.072;2023-05-10T03:30:39;17.65;65.92
73780;SHT30;62093;37.614;15.072;2023-05-10T03:33:08;17.63;65.95
73780;SHT30;62093;37.614;15.072;2023-05-10T03:35:39;17.65;65.80
73780;SHT30;62093;37.614;15.072;2023-05-10T03:38:05;17.63;65.88
73780;SHT30;62093;37.614;15.072;2023-05-10T03:40:31;17.63;65.85
73780;SHT30;62093;37.614;15.072;2023-05-10T03:42:58;17.62;65.88
73780;SHT30;62093;37.614;15.072;2023-05-10T03:45:25;17.63;65.81
73780;SHT30;62093;37.614;15.072;2023-05-10T03:47:51;17.63;65.87
73780;SHT30;62093;37.614;15.072;2023-05-10T03:50:18;17.62;66.05
73780;SHT30;62093;37.614;15.072;2023-05-10T03:52:44;17.63;65.87
73780;SHT30;62093;37.614;15.072;2023-05-10T03:55:10;17.62;65.91
73780;SHT30;62093;37.614;15.072;2023-05-10T03:57:37;17.59;65.82
73780;SHT30;62093;37.614;15.072;2023-05-10T04:00:03;17.61;65.91
73780;SHT30;62093;37.614;15.072;2023-05-10T04:02:40;17.59;66.07
73780;SHT30;62093;37.614;15.072;2023-05-10T04:05:08;17.58;66.09
73780;SHT30;62093;37.614;15.072;2023-05-10T04:07:35;17.59;66.00
73780;SHT30;62093;37.614;15.072;2023-05-10T04:10:01;17.61;65.93
73780;SHT30;62093;37.614;15.072;2023-05-10T04:12:26;17.62;65.88
73780;SHT30;62093;37.614;15.072;2023-05-10T04:14:52;17.62;65.80
73780;SHT30;62093;37.614;15.072;2023-05-10T04:17:18;17.59;65.70
73780;SHT30;62093;37.614;15.072;2023-05-10T04:19:44;17.61;65.78
73780;SHT30;62093;37.614;15.072;2023-05-10T04:22:09;17.63;65.69
73780;SHT30;62093;37.614;15.072;2023-05-10T04:24:35;17.61;65.64
73780;SHT30;62093;37.614;15.072;2023-05-10T04:27:01;17.63;65.66
73780;SHT30;62093;37.614;15.072;2023-05-10T04:29:27;17.61;65.72
73780;SHT30;62093;37.614;15.072;2023-05-10T04:31:53;17.65;65.68
73780;SHT30;62093;37.614;15.072;2023-05-10T04:34:21;17.65;65.72
73780;SHT30;62093;37.614;15.072;2023-05-10T04:36:46;17.65;65.60
73780;SHT30;62093;37.614;15.072;2023-05-10T04:39:12;17.65;65.64
73780;SHT30;62093;37.614;15.072;2023-05-10T04:41:39;17.68;65.61
73780;SHT30;62093;37.614;15.072;2023-05-10T04:44:05;17.66;65.58
73780;SHT30;62093;37.614;15.072;2023-05-10T04:46:31;17.71;65.58
73780;SHT30;62093;37.614;15.072;2023-05-10T04:48:57;17.69;65.63
73780;SHT30;62093;37.614;15.072;2023-05-10T04:51:23;17.71;65.62
73780;SHT30;62093;37.614;15.072;2023-05-10T04:53:49;17.69;65.55
73780;SHT30;62093;37.614;15.072;2023-05-10T04:56:15;17.72;65.54
73780;SHT30;62093;37.614;15.072;2023-05-10T04:58:41;17.69;65.73
73780;SHT30;62093;37.614;15.072;2023-05-10T05:01:08;17.71;65.66
73780;SHT30;62093;37.614;15.072;2023-05-10T05:03:34;17.72;65.78
73780;SHT30;62093;37.614;15.072;2023-05-10T05:05:59;17.72;65.77
73780;SHT30;62093;37.614;15.072;2023-05-10T05:08:25;17.72;65.70
73780;SHT30;62093;37.614;15.072;2023-05-10T05:10:51;17.71;65.70
73780;SHT30;62093;37.614;15.072;2023-05-10T05:13:17;17.73;65.78
73780;SHT30;62093;37.614;15.072;2023-05-10T05:15:43;17.72;65.71
73780;SHT30;62093;37.614;15.072;2023-05-10T05:18:09;17.75;65.83
73780;SHT30;62093;37.614;15.072;2023-05-10T05:20:35;17.75;65.71
73780;SHT30;62093;37.614;15.072;2023-05-10T05:23:01;17.76;65.60
73780;SHT30;62093;37.614;15.072;2023-05-10T05:25:27;17.73;65.65
73780;SHT30;62093;37.614;15.072;2023-05-10T05:27:53;17.78;65.71
73780;SHT30;62093;37.614;15.072;2023-05-10T05:30:19;17.78;65.60
73780;SHT30;62093;37.614;15.072;2023-05-10T05:32:45;17.79;65.68
73780;SHT30;62093;37.614;15.072;2023-05-10T05:35:12;17.79;65.62
73780;SHT30;62093;37.614;15.072;2023-05-10T05:37:38;17.78;65.62
73780;SHT30;62093;37.614;15.072;2023-05-10T05:40:05;17.81;65.70
73780;SHT30;62093;37.614;15.072;2023-05-10T05:42:31;17.78;65.66
73780;SHT30;62093;37.614;15.072;2023-05-10T05:44:57;17.78;65.57
73780;SHT30;62093;37.614;15.072;2023-05-10T05:47:23;17.82;65.67
73780;SHT30;62093;37.614;15.072;2023-05-10T05:49:49;17.78;65.68
73780;SHT30;62093;37.614;15.072;2023-05-10T05:52:15;17.79;65.74
73780;SHT30;62093;37.614;15.072;2023-05-10T05:54:40;17.81;65.72
73780;SHT30;62093;37.614;15.072;2023-05-10T05:57:06;17.81;65.58
73780;SHT30;62093;37.614;15.072;2023-05-10T05:59:33;17.79;65.68
73780;SHT30;62093;37.614;15.072;2023-05-10T06:01:58;17.82;65.67
73780;SHT30;62093;37.614;15.072;2023-05-10T06:04:24;17.83;65.59
73780;SHT30;62093;37.614;15.072;2023-05-10T06:06:50;17.82;65.60
73780;SHT30;62093;37.614;15.072;2023-05-10T06:09:16;17.85;65.59
73780;SHT30;62093;37.614;15.072;2023-05-10T06:11:42;17.82;65.64
73780;SHT30;62093;37.614;15.072;2023-05-10T06:14:08;17.85;65.64
73780;SHT30;62093;37.614;15.072;2023-05-10T06:16:34;17.85;65.53
73780;SHT30;62093;37.614;15.072;2023-05-10T06:19:00;17.86;65.58
73780;SHT30;62093;37.614;15.072;2023-05-10T06:21:26;17.86;65.54
73780;SHT30;62093;37.614;15.072;2023-05-10T06:23:52;17.86;65.60
73780;SHT30;62093;37.614;15.072;2023-05-10T06:26:18;17.90;65.56
73780;SHT30;62093;37.614;15.072;2023-05-10T06:28:43;17.90;65.44
73780;SHT30;62093;37.614;15.072;2023-05-10T06:31:09;17.92;65.48
73780;SHT30;62093;37.614;15.072;2023-05-10T06:33:37;17.90;65.45
73780;SHT30;62093;37.614;15.072;2023-05-10T06:36:03;17.93;65.54
73780;SHT30;62093;37.614;15.072;2023-05-10T06:38:29;17.92;65.48
73780;SHT30;62093;37.614;15.072;2023-05-10T06:40:55;17.92;65.46
73780;SHT30;62093;37.614;15.072;2023-05-10T06:43:21;17.92;65.51
73780;SHT30;62093;37.614;15.072;2023-05-10T06:45:50;17.95;65.49
73780;SHT30;62093;37.614;15.072;2023-05-10T06:48:16;17.95;65.45
73780;SHT30;62093;37.614;15.072;2023-05-10T06:50:42;17.97;65.43
73780;SHT30;62093;37.614;15.072;2023-05-10T06:53:08;17.97;65.39
73780;SHT30;62093;37.614;15.072;2023-05-10T06:55:34;17.96;65.40
73780;SHT30;62093;37.614;15.072;2023-05-10T06:57:59;17.97;65.34
73780;SHT30;62093;37.614;15.072;2023-05-10T07:00:25;17.99;65.32
73780;SHT30;62093;37.614;15.072;2023-05-10T07:02:51;18.00;65.28
73780;SHT30;62093;37.614;15.072;2023-05-10T07:05:17;18.00;65.25
73780;SHT30;62093;37.614;15.072;2023-05-10T07:07:43;18.02;65.26
73780;SHT30;62093;37.614;15.072;2023-05-10T07:10:09;18.00;65.25
73780;SHT30;62093;37.614;15.072;2023-05-10T07:12:35;18.04;65.07
73780;SHT30;62093;37.614;15.072;2023-05-10T07:15:01;18.06;65.07
73780;SHT30;62093;37.614;15.072;2023-05-10T07:17:26;18.06;65.00
73780;SHT30;62093;37.614;15.072;2023-05-10T07:19:52;18.04;64.99
73780;SHT30;62093;37.614;15.072;2023-05-10T07:22:18;18.06;64.90
73780;SHT30;62093;37.614;15.072;2023-05-10T07:24:45;18.06;64.86
73780;SHT30;62093;37.614;15.072;2023-05-10T07:27:11;18.06;64.90
73780;SHT30;62093;37.614;15.072;2023-05-10T07:29:37;18.06;64.93
73780;SHT30;62093;37.614;15.072;2023-05-10T07:32:02;18.09;64.93
73780;SHT30;62093;37.614;15.072;2023-05-10T07:34:28;18.07;64.88
73780;SHT30;62093;37.614;15.072;2023-05-10T07:36:58;18.07;65.08
73780;SHT30;62093;37.614;15.072;2023-05-10T07:39:26;18.06;64.96
73780;SHT30;62093;37.614;15.072;2023-05-10T07:41:51;18.10;64.89
73780;SHT30;62093;37.614;15.072;2023-05-10T07:44:17;18.10;64.87
73780;SHT30;62093;37.614;15.072;2023-05-10T07:46:46;18.12;65.05
73780;SHT30;62093;37.614;15.072;2023-05-10T07:49:13;18.10;64.99
73780;SHT30;62093;37.614;15.072;2023-05-10T07:51:38;18.13;64.90
73780;SHT30;62093;37.614;15.072;2023-05-10T07:54:04;18.13;64.90
73780;SHT30;62093;37.614;15.072;2023-05-10T07:56:31;18.14;64.87
73780;SHT30;62093;37.614;15.072;2023-05-10T07:58:59;18.14;64.88
73780;SHT30;62093;37.614;15.072;2023-05-10T08:01:26;18.17;64.83
73780;SHT30;62093;37.614;15.072;2023-05-10T08:03:52;18.18;64.80
73780;SHT30;62093;37.614;15.072;2023-05-10T08:06:19;18.17;64.84
73780;SHT30;62093;37.614;15.072;2023-05-10T08:08:46;18.17;64.81
73780;SHT30;62093;37.614;15.072;2023-05-10T08:11:18;18.18;64.86
73780;SHT30;62093;37.614;15.072;2023-05-10T08:13:44;18.17;64.91
73780;SHT30;62093;37.614;15.072;2023-05-10T08:16:10;18.18;64.91
73780;SHT30;62093;37.614;15.072;2023-05-10T08:18:37;18.18;64.89
73780;SHT30;62093;37.614;15.072;2023-05-10T08:21:04;18.16;64.94
73780;SHT30;62093;37.614;15.072;2023-05-10T08:23:30;18.18;64.95
73780;SHT30;62093;37.614;15.072;2023-05-10T08:25:56;18.18;64.90
73780;SHT30;62093;37.614;15.072;2023-05-10T08:28:22;18.18;64.91
73780;SHT30;62093;37.614;15.072;2023-05-10T08:30:49;18.20;64.86
73780;SHT30;62093;37.614;15.072;2023-05-10T08:33:15;18.18;64.86
73780;SHT30;62093;37.614;15.072;2023-05-10T08:35:41;18.20;64.85
73780;SHT30;62093;37.614;15.072;2023-05-10T08:38:07;18.20;64.83
73780;SHT30;62093;37.614;15.072;2023-05-10T08:40:33;18.22;64.80
73780;SHT30;62093;37.614;15.072;2023-05-10T08:43:09;18.24;64.76
73780;SHT30;62093;37.614;15.072;2023-05-10T08:45:40;18.24;64.75
73780;SHT30;62093;37.614;15.072;2023-05-10T08:48:08;18.26;64.73
73780;SHT30;62093;37.614;15.072;2023-05-10T08:50:39;18.27;64.68
73780;SHT30;62093;37.614;15.072;2023-05-10T08:53:09;18.26;64.68
73780;SHT30;62093;37.614;15.072;2023-05-10T08:55:35;18.27;64.63
73780;SHT30;62093;37.614;15.072;2023-05-10T08:58:06;18.29;64.59
73780;SHT30;62093;37.614;15.072;2023-05-10T09:00:32;18.29;64.60
73780;SHT30;62093;37.614;15.072;2023-05-10T09:02:59;18.29;64.56
73780;SHT30;62093;37.614;15.072;2023-05-10T09:05:25;18.29;64.58
73780;SHT30;62093;37.614;15.072;2023-05-10T09:07:52;18.29;64.58
73780;SHT30;62093;37.614;15.072;2023-05-10T09:10:19;18.30;64.54
73780;SHT30;62093;37.614;15.072;2023-05-10T09:12:45;18.32;64.54
73780;SHT30;62093;37.614;15.072;2023-05-10T09:15:15;18.29;64.55
73780;SHT30;62093;37.614;15.072;2023-05-10T09:17:42;18.32;64.51
73780;SHT30;62093;37.614;15.072;2023-05-10T09:20:09;18.33;64.52
73780;SHT30;62093;37.614;15.072;2023-05-10T09:22:35;18.33;64.50
73780;SHT30;62093;37.614;15.072;2023-05-10T09:25:06;18.32;64.47
73780;SHT30;62093;37.614;15.072;2023-05-10T09:27:32;18.33;64.48
73780;SHT30;62093;37.614;15.072;2023-05-10T09:29:58;18.32;64.53
73780;SHT30;62093;37.614;15.072;2023-05-10T09:32:41;18.33;64.45
73780;SHT30;62093;37.614;15.072;2023-05-10T09:37:39;18.34;64.43
73780;SHT30;62093;37.614;15.072;2023-05-10T09:40:08;18.32;64.49
73780;SHT30;62093;37.614;15.072;2023-05-10T09:42:36;18.32;64.50
73780;SHT30;62093;37.614;15.072;2023-05-10T09:45:05;18.33;64.49
73780;SHT30;62093;37.614;15.072;2023-05-10T09:47:33;18.33;64.51
73780;SHT30;62093;37.614;15.072;2023-05-10T09:50:00;18.33;64.54
73780;SHT30;62093;37.614;15.072;2023-05-10T09:52:31;18.33;64.52
73780;SHT30;62093;37.614;15.072;2023-05-10T09:55:11;18.33;64.54
73780;SHT30;62093;37.614;15.072;2023-05-10T09:57:37;18.32;64.53
73780;SHT30;62093;37.614;15.072;2023-05-10T10:00:03;18.32;64.50
73780;SHT30;62093;37.614;15.072;2023-05-10T10:02:39;18.34;64.49
73780;SHT30;62093;37.614;15.072;2023-05-10T10:05:06;18.33;64.55
73780;SHT30;62093;37.614;15.072;2023-05-10T10:07:32;18.32;64.58
73780;SHT30;62093;37.614;15.072;2023-05-10T10:10:00;18.30;64.51
73780;SHT30;62093;37.614;15.072;2023-05-10T10:12:26;18.36;64.52
73780;SHT30;62093;37.614;15.072;2023-05-10T10:14:53;18.36;64.50
73780;SHT30;62093;37.614;15.072;2023-05-10T10:17:19;18.33;64.51
73780;SHT30;62093;37.614;15.072;2023-05-10T10:19:45;18.34;64.52
73780;SHT30;62093;37.614;15.072;2023-05-10T10:22:12;18.34;64.54
73780;SHT30;62093;37.614;15.072;2023-05-10T10:24:38;18.37;64.51
73780;SHT30;62093;37.614;15.072;2023-05-10T10:27:21;18.34;64.52
73780;SHT30;62093;37.614;15.072;2023-05-10T10:32:51;18.37;64.48
73780;SHT30;62093;37.614;15.072;2023-05-10T10:35:21;18.38;64.49
73780;SHT30;62093;37.614;15.072;2023-05-10T10:37:50;18.34;64.45
73780;SHT30;62093;37.614;15.072;2023-05-10T10:42:53;18.36;64.47
73780;SHT30;62093;37.614;15.072;2023-05-10T10:45:20;18.38;64.43
73780;SHT30;62093;37.614;15.072;2023-05-10T10:47:46;18.40;64.43
73780;SHT30;62093;37.614;15.072;2023-05-10T10:50:12;18.40;64.43
73780;SHT30;62093;37.614;15.072;2023-05-10T10:52:39;18.38;64.40
73780;SHT30;62093;37.614;15.072;2023-05-10T10:55:13;18.38;64.37
73780;SHT30;62093;37.614;15.072;2023-05-10T10:57:57;18.38;64.41
73780;SHT30;62093;37.614;15.072;2023-05-10T11:00:33;18.38;64.39
73780;SHT30;62093;37.614;15.072;2023-05-10T11:03:04;18.40;64.37
73780;SHT30;62093;37.614;15.072;2023-05-10T11:05:43;18.40;64.35
73780;SHT30;62093;37.614;15.072;2023-05-10T11:08:12;18.40;64.35
73780;SHT30;62093;37.614;15.072;2023-05-10T11:10:39;18.40;64.35
73780;SHT30;62093;37.614;15.072;2023-05-10T11:13:07;18.43;64.30
73780;SHT30;62093;37.614;15.072;2023-05-10T11:15:38;18.40;64.32
73780;SHT30;62093;37.614;15.072;2023-05-10T11:18:29;18.40;64.32
73780;SHT30;62093;37.614;15.072;2023-05-10T11:20:58;18.41;64.29
73780;SHT30;62093;37.614;15.072;2023-05-10T11:23:54;18.43;64.32
73780;SHT30;62093;37.614;15.072;2023-05-10T11:26:34;18.40;64.32
73780;SHT30;62093;37.614;15.072;2023-05-10T11:29:01;18.40;64.31
73780;SHT30;62093;37.614;15.072;2023-05-10T11:31:28;18.43;64.31
73780;SHT30;62093;37.614;15.072;2023-05-10T11:33:57;18.43;64.26
73780;SHT30;62093;37.614;15.072;2023-05-10T11:36:24;18.40;64.22
73780;SHT30;62093;37.614;15.072;2023-05-10T11:38:50;18.44;64.16
73780;SHT30;62093;37.614;15.072;2023-05-10T11:41:18;18.43;64.20
73780;SHT30;62093;37.614;15.072;2023-05-10T11:43:46;18.44;64.15
73780;SHT30;62093;37.614;15.072;2023-05-10T11:46:13;18.45;64.14
73780;SHT30;62093;37.614;15.072;2023-05-10T11:48:40;18.45;64.14
73780;SHT30;62093;37.614;15.072;2023-05-10T11:51:10;18.44;64.06
73780;SHT30;62093;37.614;15.072;2023-05-10T11:53:36;18.45;63.96
73780;SHT30;62093;37.614;15.072;2023-05-10T11:56:12;18.48;64.07
73780;SHT30;62093;37.614;15.072;2023-05-10T11:58:39;18.48;64.04
73780;SHT30;62093;37.614;15.072;2023-05-10T12:01:06;18.50;64.03
73780;SHT30;62093;37.614;15.072;2023-05-10T12:03:33;18.51;64.03
73780;SHT30;62093;37.614;15.072;2023-05-10T12:06:00;18.51;63.98
73780;SHT30;62093;37.614;15.072;2023-05-10T12:08:27;18.51;63.98
73780;SHT30;62093;37.614;15.072;2023-05-10T12:11:04;18.51;63.96
73780;SHT30;62093;37.614;15.072;2023-05-10T12:13:30;18.53;63.99
73780;SHT30;62093;37.614;15.072;2023-05-10T12:15:59;18.57;63.92
73780;SHT30;62093;37.614;15.072;2023-05-10T12:18:25;18.55;63.93
73780;SHT30;62093;37.614;15.072;2023-05-10T12:20:54;18.55;63.87
73780;SHT30;62093;37.614;15.072;2023-05-10T12:23:20;18.55;63.85
73780;SHT30;62093;37.614;15.072;2023-05-10T12:25:46;18.55;63.85
73780;SHT30;62093;37.614;15.072;2023-05-10T12:28:12;18.60;63.84
73780;SHT30;62093;37.614;15.072;2023-05-10T12:30:38;18.60;63.80
73780;SHT30;62093;37.614;15.072;2023-05-10T12:33:12;18.61;63.73
73780;SHT30;62093;37.614;15.072;2023-05-10T12:38:44;18.61;63.71
73780;SHT30;62093;37.614;15.072;2023-05-10T12:41:17;18.61;63.65
73780;SHT30;62093;37.614;15.072;2023-05-10T12:43:43;18.61;63.64
73780;SHT30;62093;37.614;15.072;2023-05-10T12:46:12;18.63;63.65
73780;SHT30;62093;37.614;15.072;2023-05-10T12:48:39;18.64;63.63
73780;SHT30;62093;37.614;15.072;2023-05-10T12:51:06;18.63;63.55
73780;SHT30;62093;37.614;15.072;2023-05-10T12:53:37;18.65;63.60
73780;SHT30;62093;37.614;15.072;2023-05-10T12:56:04;18.65;63.53
73780;SHT30;62093;37.614;15.072;2023-05-10T12:58:30;18.65;63.59
73780;SHT30;62093;37.614;15.072;2023-05-10T13:00:57;18.63;63.49
73780;SHT30;62093;37.614;15.072;2023-05-10T13:03:23;18.63;63.57
73780;SHT30;62093;37.614;15.072;2023-05-10T13:05:49;18.63;63.54
73780;SHT30;62093;37.614;15.072;2023-05-10T13:08:15;18.60;63.52
73780;SHT30;62093;37.614;15.072;2023-05-10T13:10:41;18.63;63.52
73780;SHT30;62093;37.614;15.072;2023-05-10T13:13:07;18.63;63.50
73780;SHT30;62093;37.614;15.072;2023-05-10T13:15:34;18.60;63.41
73780;SHT30;62093;37.614;15.072;2023-05-10T13:18:00;18.60;63.47
73780;SHT30;62093;37.614;15.072;2023-05-10T13:20:26;18.63;63.48
73780;SHT30;62093;37.614;15.072;2023-05-10T13:22:53;18.61;63.46
73780;SHT30;62093;37.614;15.072;2023-05-10T13:25:19;18.61;63.43
73780;SHT30;62093;37.614;15.072;2023-05-10T13:27:45;18.63;63.51
73780;SHT30;62093;37.614;15.072;2023-05-10T13:30:11;18.61;63.47
73780;SHT30;62093;37.614;15.072;2023-05-10T13:32:37;18.61;63.40
73780;SHT30;62093;37.614;15.072;2023-05-10T13:35:04;18.60;63.44
73780;SHT30;62093;37.614;15.072;2023-05-10T13:37:31;18.60;63.37
73780;SHT30;62093;37.614;15.072;2023-05-10T13:39:57;18.60;63.40
73780;SHT30;62093;37.614;15.072;2023-05-10T13:42:23;18.61;63.38
73780;SHT30;62093;37.614;15.072;2023-05-10T13:44:50;18.61;63.37
73780;SHT30;62093;37.614;15.072;2023-05-10T13:47:16;18.60;63.35
73780;SHT30;62093;37.614;15.072;2023-05-10T13:49:41;18.61;63.38
73780;SHT30;62093;37.614;15.072;2023-05-10T13:52:08;18.60;63.45
73780;SHT30;62093;37.614;15.072;2023-05-10T13:54:38;18.58;63.43
73780;SHT30;62093;37.614;15.072;2023-05-10T13:57:04;18.60;63.42
73780;SHT30;62093;37.614;15.072;2023-05-10T13:59:30;18.60;63.40
73780;SHT30;62093;37.614;15.072;2023-05-10T14:01:59;18.57;63.46
73780;SHT30;62093;37.614;15.072;2023-05-10T14:04:29;18.57;63.50
73780;SHT30;62093;37.614;15.072;2023-05-10T14:06:56;18.55;63.48
73780;SHT30;62093;37.614;15.072;2023-05-10T14:09:22;18.55;63.51
73780;SHT30;62093;37.614;15.072;2023-05-10T14:11:47;18.57;63.59
73780;SHT30;62093;37.614;15.072;2023-05-10T14:14:13;18.54;63.62
73780;SHT30;62093;37.614;15.072;2023-05-10T14:16:43;18.54;63.66
73780;SHT30;62093;37.614;15.072;2023-05-10T14:19:10;18.54;63.75
73780;SHT30;62093;37.614;15.072;2023-05-10T14:21:36;18.51;63.71
73780;SHT30;62093;37.614;15.072;2023-05-10T14:24:01;18.50;63.79
73780;SHT30;62093;37.614;15.072;2023-05-10T14:26:29;18.51;63.81
73780;SHT30;62093;37.614;15.072;2023-05-10T14:28:54;18.48;63.84
73780;SHT30;62093;37.614;15.072;2023-05-10T14:31:20;18.47;63.89
73780;SHT30;62093;37.614;15.072;2023-05-10T14:33:46;18.47;63.93
73780;SHT30;62093;37.614;15.072;2023-05-10T14:36:12;18.44;63.92
73780;SHT30;62093;37.614;15.072;2023-05-10T14:38:39;18.44;64.00
73780;SHT30;62093;37.614;15.072;2023-05-10T14:41:05;18.43;64.01
73780;SHT30;62093;37.614;15.072;2023-05-10T14:43:31;18.43;64.06
73780;SHT30;62093;37.614;15.072;2023-05-10T14:45:57;18.41;64.03
73780;SHT30;62093;37.614;15.072;2023-05-10T14:48:22;18.43;64.05
73780;SHT30;62093;37.614;15.072;2023-05-10T14:50:48;18.38;64.11
73780;SHT30;62093;37.614;15.072;2023-05-10T14:53:15;18.41;64.18
73780;SHT30;62093;37.614;15.072;2023-05-10T14:55:41;18.41;64.18
73780;SHT30;62093;37.614;15.072;2023-05-10T14:58:07;18.43;64.16
73780;SHT30;62093;37.614;15.072;2023-05-10T15:00:33;18.41;64.16
73780;SHT30;62093;37.614;15.072;2023-05-10T15:02:59;18.40;64.16
73780;SHT30;62093;37.614;15.072;2023-05-10T15:05:25;18.41;64.13
73780;SHT30;62093;37.614;15.072;2023-05-10T15:07:50;18.41;64.20
73780;SHT30;62093;37.614;15.072;2023-05-10T15:10:18;18.43;64.19
73780;SHT30;62093;37.614;15.072;2023-05-10T15:12:43;18.41;64.19
73780;SHT30;62093;37.614;15.072;2023-05-10T15:15:09;18.43;64.24
73780;SHT30;62093;37.614;15.072;2023-05-10T15:17:35;18.44;64.28
73780;SHT30;62093;37.614;15.072;2023-05-10T15:20:02;18.44;64.25
73780;SHT30;62093;37.614;15.072;2023-05-10T15:22:30;18.43;64.32
73780;SHT30;62093;37.614;15.072;2023-05-10T15:24:58;18.43;64.25
73780;SHT30;62093;37.614;15.072;2023-05-10T15:27:25;18.44;64.24
73780;SHT30;62093;37.614;15.072;2023-05-10T15:29:51;18.44;64.25
73780;SHT30;62093;37.614;15.072;2023-05-10T15:32:17;18.43;64.30
73780;SHT30;62093;37.614;15.072;2023-05-10T15:34:43;18.43;64.30
73780;SHT30;62093;37.614;15.072;2023-05-10T15:37:09;18.44;64.35
73780;SHT30;62093;37.614;15.072;2023-05-10T15:39:35;18.44;64.31
73780;SHT30;62093;37.614;15.072;2023-05-10T15:42:01;18.44;64.34
73780;SHT30;62093;37.614;15.072;2023-05-10T15:44:28;18.45;64.35
73780;SHT30;62093;37.614;15.072;2023-05-10T15:46:54;18.45;64.39
73780;SHT30;62093;37.614;15.072;2023-05-10T15:49:20;18.44;64.37